Time;durP1;ratioP1;P1;durP2;ratioP2;P2;SDS_P1;SDS_P2;PMS_P1;PMS_P2;Temp;Humidity;BMP_temperature;BMP_pressure;BME280_temperature;BME280_humidity;BME280_pressure;Samples;Min_cycle;Max_cycle;Signal;HPM_P1;HPM_P2
2021/03/30 00:02:11;;;;;;;11.88;4.50;;;;;;;;;;5113240;28;20395;-86
2021/03/30 00:04:38;;;;;;;9.52;4.50;;;;;;;;;;5129564;28;20058;-86
2021/03/30 00:07:05;;;;;;;12.43;4.75;;;;;;;;;;5113005;28;20464;-86
2021/03/30 00:09:33;;;;;;;13.93;4.60;;;;;;;;;;5113100;28;20040;-86
2021/03/30 00:12:01;;;;;;;15.38;4.95;;;;;;;;;;5129366;28;20123;-86
2021/03/30 00:14:31;;;;;;;15.07;5.05;;;;;;;;;;5129644;28;20043;-85
2021/03/30 00:16:58;;;;;;;10.25;4.72;;;;;;;;;;5129218;28;20036;-86
2021/03/30 00:19:26;;;;;;;17.52;5.20;;;;;;;;;;5112915;28;20040;-87
2021/03/30 00:21:53;;;;;;;12.35;4.68;;;;;;;;;;5112458;28;20488;-86
2021/03/30 00:24:20;;;;;;;11.23;4.63;;;;;;;;;;5129540;28;20036;-86
2021/03/30 00:26:47;;;;;;;12.95;4.60;;;;;;;;;;5112057;28;20490;-86
2021/03/30 00:29:15;;;;;;;13.73;5.22;;;;;;;;;;5129420;28;20044;-86
2021/03/30 00:31:42;;;;;;;13.20;4.80;;;;;;;;;;5128499;28;20057;-86
2021/03/30 00:34:09;;;;;;;14.70;5.07;;;;;;;;;;5129349;28;20036;-86
2021/03/30 00:36:36;;;;;;;18.70;5.65;;;;;;;;;;5111565;28;20044;-86
2021/03/30 00:39:04;;;;;;;9.00;4.55;;;;;;;;;;5111094;28;20040;-85
2021/03/30 00:41:39;;;;;;;14.52;4.95;;;;;;;;;;5128019;28;20028;-86
2021/03/30 00:44:10;;;;;;;13.13;4.93;;;;;;;;;;5127692;28;20388;-86
2021/03/30 00:46:38;;;;;;;13.07;5.45;;;;;;;;;;5111111;28;20109;-86
2021/03/30 00:49:05;;;;;;;12.65;5.30;;;;;;;;;;5127500;28;20044;-86
2021/03/30 00:51:33;;;;;;;13.70;6.40;;;;;;;;;;5127780;28;20032;-86
2021/03/30 00:54:00;;;;;;;14.02;5.40;;;;;;;;;;5128700;28;20440;-86
2021/03/30 00:56:27;;;;;;;14.30;5.60;;;;;;;;;;5129465;28;20107;-86
2021/03/30 00:58:56;;;;;;;13.05;5.50;;;;;;;;;;5111130;28;20147;-86
2021/03/30 01:01:23;;;;;;;12.63;5.10;;;;;;;;;;5127801;28;20038;-86
2021/03/30 01:03:50;;;;;;;17.63;5.85;;;;;;;;;;5110645;28;20040;-86
2021/03/30 01:06:17;;;;;;;14.13;5.63;;;;;;;;;;5127921;28;20533;-86
2021/03/30 01:08:44;;;;;;;17.10;6.35;;;;;;;;;;5111217;28;20162;-86
2021/03/30 01:11:35;;;;;;;13.73;5.65;;;;;;;;;;5127684;28;20036;-86
2021/03/30 01:14:08;;;;;;;20.63;6.47;;;;;;;;;;5120504;28;20048;-86
2021/03/30 01:16:40;;;;;;;15.27;5.80;;;;;;;;;;5128860;28;20472;-86
2021/03/30 01:19:14;;;;;;;16.48;6.25;;;;;;;;;;5127172;28;20036;-86
2021/03/30 01:21:50;;;;;;;13.15;5.70;;;;;;;;;;5127581;28;20502;-86
2021/03/30 01:24:22;;;;;;;14.85;5.95;;;;;;;;;;5127525;28;20032;-86
2021/03/30 01:26:49;;;;;;;17.27;6.05;;;;;;;;;;5127130;28;20036;-86
2021/03/30 01:29:28;;;;;;;12.70;6.40;;;;;;;;;;5127728;28;20067;-86
2021/03/30 01:32:02;;;;;;;19.45;7.03;;;;;;;;;;5126936;28;20036;-86
2021/03/30 01:34:29;;;;;;;17.25;6.60;;;;;;;;;;5127343;28;20039;-86
2021/03/30 01:36:58;;;;;;;15.35;7.15;;;;;;;;;;5089110;28;611178;-87
2021/03/30 01:39:26;;;;;;;13.75;6.60;;;;;;;;;;5128119;28;20032;-86
2021/03/30 01:41:54;;;;;;;19.13;6.93;;;;;;;;;;5111071;28;20044;-86
2021/03/30 01:44:23;;;;;;;16.52;6.32;;;;;;;;;;5127180;28;20074;-86
2021/03/30 01:46:51;;;;;;;14.77;6.63;;;;;;;;;;5127525;28;20109;-86
2021/03/30 01:49:19;;;;;;;17.42;7.47;;;;;;;;;;5128397;28;20031;-86
2021/03/30 01:51:47;;;;;;;20.58;7.05;;;;;;;;;;5111134;28;20043;-86
2021/03/30 01:54:15;;;;;;;16.50;6.50;;;;;;;;;;5110710;28;20118;-86
2021/03/30 01:56:43;;;;;;;14.65;6.13;;;;;;;;;;5127862;28;20032;-86
2021/03/30 01:59:13;;;;;;;12.80;6.20;;;;;;;;;;5110851;28;20063;-86
2021/03/30 02:01:41;;;;;;;12.80;5.93;;;;;;;;;;5127818;28;20036;-86
2021/03/30 02:04:08;;;;;;;15.80;6.85;;;;;;;;;;5110631;28;20040;-86
2021/03/30 02:06:37;;;;;;;15.05;6.35;;;;;;;;;;5110985;28;20052;-86
2021/03/30 02:09:06;;;;;;;12.63;6.22;;;;;;;;;;5127295;28;20051;-86
2021/03/30 02:11:58;;;;;;;13.95;5.80;;;;;;;;;;5111262;28;20044;-85
2021/03/30 02:14:22;;;;;;;14.23;6.47;;;;;;;;;;5128237;28;20494;-86
2021/03/30 02:17:02;;;;;;;13.85;6.38;;;;;;;;;;5110943;28;20038;-86
2021/03/30 02:19:49;;;;;;;12.82;6.40;;;;;;;;;;5127755;28;20036;-86
2021/03/30 02:22:27;;;;;;;15.90;6.88;;;;;;;;;;5126819;28;20396;-86
2021/03/30 02:24:55;;;;;;;18.70;7.10;;;;;;;;;;5128512;28;20043;-86
2021/03/30 02:27:23;;;;;;;16.23;7.45;;;;;;;;;;5127279;28;20392;-86
2021/03/30 02:29:52;;;;;;;17.55;6.60;;;;;;;;;;5127244;28;20036;-86
2021/03/30 02:32:21;;;;;;;14.73;7.03;;;;;;;;;;5126904;28;20036;-86
2021/03/30 02:34:48;;;;;;;16.08;7.13;;;;;;;;;;5127260;28;20055;-86
2021/03/30 02:37:18;;;;;;;16.23;7.05;;;;;;;;;;5109517;28;20507;-86
2021/03/30 02:39:46;;;;;;;16.40;6.72;;;;;;;;;;5128237;28;20032;-86
2021/03/30 02:42:14;;;;;;;16.77;6.93;;;;;;;;;;5109994;28;20089;-85
2021/03/30 02:44:42;;;;;;;13.98;7.05;;;;;;;;;;5128179;28;20060;-86
2021/03/30 02:47:10;;;;;;;13.65;6.50;;;;;;;;;;5126478;28;20040;-86
2021/03/30 02:49:38;;;;;;;20.45;7.07;;;;;;;;;;5110270;28;20127;-86
2021/03/30 02:52:05;;;;;;;15.63;6.38;;;;;;;;;;5127603;28;20039;-86
2021/03/30 02:54:33;;;;;;;17.33;6.93;;;;;;;;;;5126861;28;20040;-86
2021/03/30 02:57:01;;;;;;;16.27;6.70;;;;;;;;;;5126644;28;20114;-86
2021/03/30 02:59:29;;;;;;;17.27;6.57;;;;;;;;;;5128108;28;20418;-86
2021/03/30 03:01:57;;;;;;;13.90;6.47;;;;;;;;;;5126985;28;20373;-86
2021/03/30 03:04:26;;;;;;;11.48;6.47;;;;;;;;;;5109766;28;20044;-86
2021/03/30 03:06:54;;;;;;;16.45;6.72;;;;;;;;;;5126934;28;20388;-86
2021/03/30 03:09:22;;;;;;;13.95;6.90;;;;;;;;;;5109766;28;20047;-86
2021/03/30 03:11:50;;;;;;;14.90;6.85;;;;;;;;;;5110060;28;20044;-86
2021/03/30 03:14:19;;;;;;;16.08;6.30;;;;;;;;;;5126394;28;20032;-86
2021/03/30 03:16:46;;;;;;;18.58;7.05;;;;;;;;;;5126759;28;20036;-86
2021/03/30 03:19:14;;;;;;;16.35;6.78;;;;;;;;;;5109775;28;20032;-86
2021/03/30 03:21:42;;;;;;;12.40;6.20;;;;;;;;;;5126751;28;20044;-86
2021/03/30 03:24:10;;;;;;;16.98;6.82;;;;;;;;;;5126230;28;20058;-86
2021/03/30 03:26:38;;;;;;;13.00;7.13;;;;;;;;;;5109957;28;20089;-86
2021/03/30 03:29:13;;;;;;;13.77;6.28;;;;;;;;;;5109521;28;20040;-86
2021/03/30 03:31:40;;;;;;;14.27;6.53;;;;;;;;;;5126656;28;20036;-86
2021/03/30 03:34:07;;;;;;;17.00;6.43;;;;;;;;;;5126049;28;20447;-86
2021/03/30 03:36:39;;;;;;;13.85;5.90;;;;;;;;;;5109515;28;20048;-86
2021/03/30 03:39:07;;;;;;;13.93;6.75;;;;;;;;;;5127342;28;20042;-86
2021/03/30 03:41:35;;;;;;;13.98;6.30;;;;;;;;;;5127852;28;20040;-86
2021/03/30 03:44:02;;;;;;;15.93;6.20;;;;;;;;;;5126427;28;20039;-86
2021/03/30 03:46:30;;;;;;;13.05;6.45;;;;;;;;;;5109203;28;20433;-86
2021/03/30 03:48:57;;;;;;;12.65;6.55;;;;;;;;;;5109795;28;20395;-86
2021/03/30 03:51:25;;;;;;;15.60;6.47;;;;;;;;;;5109242;28;20044;-86
2021/03/30 03:53:54;;;;;;;13.88;6.25;;;;;;;;;;5109693;28;20036;-86
2021/03/30 03:56:28;;;;;;;15.32;6.43;;;;;;;;;;5125953;28;20588;-86
2021/03/30 03:58:58;;;;;;;10.90;6.10;;;;;;;;;;5126354;28;20533;-86
2021/03/30 04:01:57;;;;;;;18.95;6.90;;;;;;;;;;5125738;28;20103;-86
2021/03/30 04:04:34;;;;;;;13.93;6.75;;;;;;;;;;5071056;28;20055;-86
2021/03/30 04:07:03;;;;;;;12.23;6.25;;;;;;;;;;5126952;28;20036;-86
2021/03/30 04:09:31;;;;;;;17.55;6.82;;;;;;;;;;5127871;28;20548;-86
2021/03/30 04:11:59;;;;;;;16.02;6.15;;;;;;;;;;5115875;28;20040;-86
2021/03/30 04:14:27;;;;;;;13.80;6.47;;;;;;;;;;5129403;28;20043;-86
2021/03/30 04:16:54;;;;;;;13.85;6.82;;;;;;;;;;5129916;28;20040;-86
2021/03/30 04:19:21;;;;;;;13.13;6.50;;;;;;;;;;5129343;28;20036;-86
2021/03/30 04:21:48;;;;;;;12.85;6.80;;;;;;;;;;5129731;28;20032;-86
2021/03/30 04:24:16;;;;;;;15.52;6.93;;;;;;;;;;5112565;28;20032;-86
2021/03/30 04:26:43;;;;;;;14.48;7.28;;;;;;;;;;5112794;28;20043;-86
2021/03/30 04:29:11;;;;;;;15.68;7.20;;;;;;;;;;5112448;28;20127;-86
2021/03/30 04:31:38;;;;;;;17.42;6.97;;;;;;;;;;5112639;28;20032;-86
2021/03/30 04:34:05;;;;;;;14.77;7.47;;;;;;;;;;5129440;28;20036;-86
2021/03/30 04:36:33;;;;;;;19.02;7.97;;;;;;;;;;5112071;28;20055;-86
2021/03/30 04:39:00;;;;;;;17.83;7.68;;;;;;;;;;5129479;28;20064;-86
2021/03/30 04:41:27;;;;;;;15.73;7.38;;;;;;;;;;5128959;28;20035;-86
2021/03/30 04:43:54;;;;;;;15.98;7.47;;;;;;;;;;5112475;28;20385;-86
2021/03/30 04:46:22;;;;;;;13.63;7.78;;;;;;;;;;5112211;28;20452;-86
2021/03/30 04:48:49;;;;;;;13.77;7.13;;;;;;;;;;5129207;28;20066;-86
2021/03/30 04:51:16;;;;;;;15.88;7.35;;;;;;;;;;5128782;28;20063;-86
2021/03/30 04:53:43;;;;;;;15.18;7.60;;;;;;;;;;5112103;28;20047;-86
2021/03/30 04:56:11;;;;;;;14.30;7.85;;;;;;;;;;5095285;28;20048;-86
2021/03/30 04:58:38;;;;;;;17.85;7.45;;;;;;;;;;5108166;28;20036;-86
2021/03/30 05:01:05;;;;;;;16.73;7.50;;;;;;;;;;5108428;28;20039;-86
2021/03/30 05:03:32;;;;;;;16.50;7.20;;;;;;;;;;5108228;28;20116;-86
2021/03/30 05:05:59;;;;;;;12.88;7.53;;;;;;;;;;5108536;28;20032;-86
2021/03/30 05:08:27;;;;;;;13.63;7.10;;;;;;;;;;5108411;28;20037;-86
2021/03/30 05:10:54;;;;;;;16.70;8.18;;;;;;;;;;5108279;28;20044;-86
2021/03/30 05:13:21;;;;;;;16.42;7.95;;;;;;;;;;5091215;28;20048;-86
2021/03/30 05:15:48;;;;;;;16.90;7.85;;;;;;;;;;5108814;28;20040;-86
2021/03/30 05:18:16;;;;;;;15.07;7.80;;;;;;;;;;5107672;28;20511;-86
2021/03/30 05:20:43;;;;;;;20.08;7.68;;;;;;;;;;5107825;28;20127;-86
2021/03/30 05:23:11;;;;;;;18.15;8.50;;;;;;;;;;5108230;28;20072;-86
2021/03/30 05:25:39;;;;;;;19.70;8.23;;;;;;;;;;5107873;28;20044;-86
2021/03/30 05:28:06;;;;;;;15.18;7.30;;;;;;;;;;5111610;28;20043;-86
2021/03/30 05:30:34;;;;;;;16.35;8.20;;;;;;;;;;5128038;28;20453;-86
2021/03/30 05:33:01;;;;;;;16.90;7.75;;;;;;;;;;5128383;28;20392;-86
2021/03/30 05:35:28;;;;;;;15.23;7.93;;;;;;;;;;5094700;28;20040;-86
2021/03/30 05:37:56;;;;;;;12.07;7.57;;;;;;;;;;5128031;28;20078;-85
2021/03/30 05:40:23;;;;;;;13.68;7.78;;;;;;;;;;5127808;28;20035;-86
2021/03/30 05:42:50;;;;;;;19.85;8.57;;;;;;;;;;5128311;28;20094;-86
2021/03/30 05:45:18;;;;;;;18.48;8.57;;;;;;;;;;5111788;28;20089;-87
2021/03/30 05:47:46;;;;;;;16.73;8.05;;;;;;;;;;5111170;28;20040;-86
2021/03/30 05:50:14;;;;;;;18.13;8.10;;;;;;;;;;5111538;28;20503;-86
2021/03/30 05:52:48;;;;;;;20.20;8.25;;;;;;;;;;5127608;28;20046;-86
2021/03/30 05:55:24;;;;;;;17.45;8.43;;;;;;;;;;5112122;28;20028;-85
2021/03/30 05:57:53;;;;;;;15.23;8.00;;;;;;;;;;5127888;28;20063;-86
2021/03/30 06:00:21;;;;;;;14.35;8.05;;;;;;;;;;5127911;28;20037;-86
2021/03/30 06:02:50;;;;;;;17.27;8.88;;;;;;;;;;5128093;28;20032;-86
2021/03/30 06:05:18;;;;;;;15.70;7.68;;;;;;;;;;5127771;28;20043;-86
2021/03/30 06:07:45;;;;;;;16.58;8.55;;;;;;;;;;5110902;28;20586;-86
2021/03/30 06:10:14;;;;;;;16.35;7.88;;;;;;;;;;5111224;28;20473;-86
2021/03/30 06:12:42;;;;;;;14.40;7.47;;;;;;;;;;5127139;28;20054;-86
2021/03/30 06:15:10;;;;;;;15.98;8.02;;;;;;;;;;5127946;28;20097;-87
2021/03/30 06:17:43;;;;;;;18.70;8.00;;;;;;;;;;5127353;28;20119;-85
2021/03/30 06:20:11;;;;;;;12.93;7.57;;;;;;;;;;5114556;28;20161;-86
2021/03/30 06:22:46;;;;;;;16.10;7.80;;;;;;;;;;5106757;28;20029;-86
2021/03/30 06:25:13;;;;;;;18.17;8.15;;;;;;;;;;5109405;28;20655;-87
2021/03/30 06:27:41;;;;;;;13.02;7.97;;;;;;;;;;5110051;28;20040;-86
2021/03/30 06:30:09;;;;;;;14.57;7.78;;;;;;;;;;5127010;28;20462;-85
2021/03/30 06:32:37;;;;;;;13.32;7.50;;;;;;;;;;5110245;28;20486;-85
2021/03/30 06:35:12;;;;;;;14.57;7.47;;;;;;;;;;5110725;28;20446;-86
2021/03/30 06:37:41;;;;;;;17.95;8.07;;;;;;;;;;5127988;28;20094;-85
2021/03/30 06:40:18;;;;;;;16.38;8.52;;;;;;;;;;5127464;28;20036;-88
2021/03/30 06:42:52;;;;;;;18.42;8.70;;;;;;;;;;5127465;28;20126;-84
2021/03/30 06:45:21;;;;;;;12.70;7.47;;;;;;;;;;5116754;28;20398;-84
2021/03/30 06:47:54;;;;;;;15.25;7.93;;;;;;;;;;5126036;28;20048;-83
2021/03/30 06:50:29;;;;;;;17.52;8.15;;;;;;;;;;5127815;28;20468;-83
2021/03/30 06:52:57;;;;;;;15.88;7.60;;;;;;;;;;5127563;28;20817;-83
2021/03/30 06:55:26;;;;;;;15.75;8.40;;;;;;;;;;5126570;28;20036;-83
2021/03/30 06:57:58;;;;;;;14.50;8.13;;;;;;;;;;5127434;28;20047;-83
2021/03/30 07:00:25;;;;;;;16.70;7.90;;;;;;;;;;5126540;28;20047;-84
2021/03/30 07:02:58;;;;;;;19.70;8.45;;;;;;;;;;5126197;28;20504;-83
2021/03/30 07:05:34;;;;;;;14.48;7.88;;;;;;;;;;5126586;28;20028;-83
2021/03/30 07:08:05;;;;;;;15.60;7.68;;;;;;;;;;5126350;28;20040;-83
2021/03/30 07:10:34;;;;;;;15.10;7.70;;;;;;;;;;5125855;28;20025;-84
2021/03/30 07:13:01;;;;;;;16.70;7.93;;;;;;;;;;5109542;28;20048;-83
2021/03/30 07:15:29;;;;;;;18.20;8.20;;;;;;;;;;5126400;28;20039;-84
2021/03/30 07:18:06;;;;;;;15.10;7.55;;;;;;;;;;5126207;28;20047;-84
2021/03/30 07:20:37;;;;;;;14.23;7.28;;;;;;;;;;5143772;28;20035;-84
2021/03/30 07:23:08;;;;;;;15.30;7.45;;;;;;;;;;5130149;28;20122;-84
2021/03/30 07:25:41;;;;;;;16.35;8.00;;;;;;;;;;5130197;28;20399;-84
2021/03/30 07:28:12;;;;;;;18.05;7.95;;;;;;;;;;5146594;28;20043;-83
2021/03/30 07:30:43;;;;;;;15.95;7.93;;;;;;;;;;5112776;28;20156;-84
2021/03/30 07:33:26;;;;;;;18.58;7.43;;;;;;;;;;5126614;28;20032;-83
2021/03/30 07:35:55;;;;;;;22.02;8.18;;;;;;;;;;5125486;28;20465;-84
2021/03/30 07:38:26;;;;;;;13.40;7.97;;;;;;;;;;5126053;28;20055;-84
2021/03/30 07:40:53;;;;;;;15.93;7.90;;;;;;;;;;5126034;28;20127;-85
2021/03/30 07:43:23;;;;;;;15.88;7.75;;;;;;;;;;5111055;28;20036;-84
2021/03/30 07:45:51;;;;;;;16.88;7.80;;;;;;;;;;5113999;28;20039;-84
2021/03/30 07:48:19;;;;;;;12.75;7.72;;;;;;;;;;5114276;28;20047;-83
2021/03/30 07:51:01;;;;;;;15.20;7.70;;;;;;;;;;5092702;28;20041;-84
2021/03/30 07:53:44;;;;;;;16.48;7.70;;;;;;;;;;5109969;28;20046;-84
2021/03/30 07:56:34;;;;;;;17.58;8.10;;;;;;;;;;5109634;28;20156;-83
2021/03/30 07:59:01;;;;;;;15.07;7.55;;;;;;;;;;5128923;28;20051;-84
2021/03/30 08:01:29;;;;;;;17.92;7.20;;;;;;;;;;5123072;28;20028;-83
2021/03/30 08:03:56;;;;;;;16.00;7.30;;;;;;;;;;5097021;28;20112;-84
2021/03/30 08:06:24;;;;;;;15.90;7.57;;;;;;;;;;5129502;28;20036;-84
2021/03/30 08:08:53;;;;;;;20.23;7.80;;;;;;;;;;5112700;28;20373;-84
2021/03/30 08:11:43;;;;;;;16.67;7.30;;;;;;;;;;5129773;28;20464;-85
2021/03/30 08:14:12;;;;;;;12.90;6.88;;;;;;;;;;5116784;28;20044;-83
2021/03/30 08:16:40;;;;;;;15.65;7.25;;;;;;;;;;5129182;28;20070;-83
2021/03/30 08:19:09;;;;;;;16.10;6.93;;;;;;;;;;5129630;28;20040;-82
2021/03/30 08:21:55;;;;;;;18.08;6.60;;;;;;;;;;5129030;28;20036;-83
2021/03/30 08:24:22;;;;;;;;;;;;;;;;;;5124253;28;20055;-83
2021/03/30 08:26:50;;;;;;;16.23;6.88;;;;;;;;;;5127378;28;19927;-83
2021/03/30 08:29:33;;;;;;;12.10;6.50;;;;;;;;;;5101523;28;20043;-83
2021/03/30 08:32:01;;;;;;;14.98;6.45;;;;;;;;;;5108539;28;20465;-83
2021/03/30 08:34:38;;;;;;;13.73;7.05;;;;;;;;;;5108822;28;20465;-83
2021/03/30 08:37:13;;;;;;;21.80;7.18;;;;;;;;;;5108901;28;20052;-83
2021/03/30 08:39:41;;;;;;;17.95;7.20;;;;;;;;;;5108374;28;20047;-83
2021/03/30 08:42:09;;;;;;;16.90;7.22;;;;;;;;;;5108572;28;20028;-83
2021/03/30 08:44:43;;;;;;;22.60;8.30;;;;;;;;;;5108448;28;20358;-83
2021/03/30 08:47:32;;;;;;;16.88;7.60;;;;;;;;;;5091941;28;20040;-83
2021/03/30 08:50:14;;;;;;;14.38;6.57;;;;;;;;;;5091099;28;20480;-83
2021/03/30 08:52:41;;;;;;;19.25;7.00;;;;;;;;;;5091256;28;20063;-82
2021/03/30 08:55:09;;;;;;;16.90;7.10;;;;;;;;;;5091576;28;20033;-82
2021/03/30 08:57:38;;;;;;;18.83;7.13;;;;;;;;;;5088525;28;20048;-81
2021/03/30 09:00:06;;;;;;;15.35;6.68;;;;;;;;;;5093810;28;20066;-82
2021/03/30 09:02:34;;;;;;;17.27;6.80;;;;;;;;;;5109551;28;20040;-82
2021/03/30 09:05:02;;;;;;;17.63;6.72;;;;;;;;;;5091220;28;20040;-82
2021/03/30 09:07:41;;;;;;;21.58;6.75;;;;;;;;;;5091729;28;20062;-82
2021/03/30 09:10:10;;;;;;;13.50;6.50;;;;;;;;;;5102203;28;20403;-82
2021/03/30 09:12:37;;;;;;;15.00;6.60;;;;;;;;;;5088333;28;20035;-81
2021/03/30 09:15:07;;;;;;;17.48;5.95;;;;;;;;;;5091434;28;20086;-84
2021/03/30 09:17:34;;;;;;;16.23;6.47;;;;;;;;;;5091850;28;20036;-82
2021/03/30 09:20:02;;;;;;;20.08;7.13;;;;;;;;;;5074255;28;20033;-82
2021/03/30 09:22:44;;;;;;;22.10;7.20;;;;;;;;;;5091539;28;20396;-82
2021/03/30 09:25:26;;;;;;;17.17;6.35;;;;;;;;;;5077160;28;20052;-83
2021/03/30 09:27:54;;;;;;;14.02;6.57;;;;;;;;;;5075431;28;20032;-83
2021/03/30 09:30:23;;;;;;;16.50;6.40;;;;;;;;;;5091434;28;20127;-85
2021/03/30 09:32:51;;;;;;;18.20;6.55;;;;;;;;;;5091775;28;20063;-84
2021/03/30 09:35:18;;;;;;;18.05;5.88;;;;;;;;;;5075780;28;20039;-83
2021/03/30 09:37:48;;;;;;;14.13;5.65;;;;;;;;;;5120646;28;20145;-82
2021/03/30 09:40:17;;;;;;;17.92;6.50;;;;;;;;;;5111484;28;20484;-82
2021/03/30 09:42:45;;;;;;;18.02;6.82;;;;;;;;;;5110318;28;20093;-82
2021/03/30 09:45:13;;;;;;;13.85;5.75;;;;;;;;;;5110636;28;20073;-82
2021/03/30 09:47:41;;;;;;;17.33;6.10;;;;;;;;;;5111102;28;20480;-83
2021/03/30 09:50:09;;;;;;;16.73;6.53;;;;;;;;;;5110985;28;20529;-86
2021/03/30 09:52:37;;;;;;;14.73;5.85;;;;;;;;;;5127633;28;20043;-84
2021/03/30 09:55:06;;;;;;;13.50;5.25;;;;;;;;;;5126378;28;20089;-85
2021/03/30 09:57:33;;;;;;;14.93;5.80;;;;;;;;;;5127598;28;20036;-84
2021/03/30 10:00:02;;;;;;;15.52;5.90;;;;;;;;;;5127226;28;20404;-83
2021/03/30 10:02:33;;;;;;;19.75;5.82;;;;;;;;;;5110895;28;20035;-83
2021/03/30 10:05:02;;;;;;;14.90;5.47;;;;;;;;;;5126193;28;20539;-84
2021/03/30 10:07:42;;;;;;;15.77;5.35;;;;;;;;;;5127671;28;20039;-84
2021/03/30 10:10:10;;;;;;;14.80;5.28;;;;;;;;;;5127405;28;20036;-83
2021/03/30 10:12:57;;;;;;;15.18;5.80;;;;;;;;;;5110240;28;20051;-82
2021/03/30 10:15:35;;;;;;;16.02;6.15;;;;;;;;;;5110337;28;20068;-83
2021/03/30 10:18:03;;;;;;;17.10;5.10;;;;;;;;;;5126626;28;20043;-83
2021/03/30 10:20:31;;;;;;;18.23;5.80;;;;;;;;;;5127218;28;20503;-83
2021/03/30 10:22:58;;;;;;;13.02;5.53;;;;;;;;;;5126784;28;20498;-83
2021/03/30 10:25:31;;;;;;;15.10;6.00;;;;;;;;;;5109852;28;20042;-82
2021/03/30 10:28:00;;;;;;;14.88;5.78;;;;;;;;;;5109725;28;20036;-82
2021/03/30 10:30:43;;;;;;;19.05;5.90;;;;;;;;;;5126960;28;20118;-82
2021/03/30 10:33:15;;;;;;;15.25;5.72;;;;;;;;;;5126072;28;20032;-82
2021/03/30 10:35:42;;;;;;;17.38;5.80;;;;;;;;;;5126761;28;20036;-83
2021/03/30 10:38:10;;;;;;;12.30;5.28;;;;;;;;;;5125962;28;20131;-83
2021/03/30 10:40:41;;;;;;;14.02;5.25;;;;;;;;;;5126544;28;20472;-82
2021/03/30 10:43:18;;;;;;;15.18;5.50;;;;;;;;;;5126337;28;20058;-83
2021/03/30 10:45:45;;;;;;;16.00;6.22;;;;;;;;;;5106350;28;20032;-80
2021/03/30 10:48:13;;;;;;;13.30;5.25;;;;;;;;;;5106582;28;20106;-83
2021/03/30 10:50:41;;;;;;;14.05;5.22;;;;;;;;;;5109757;28;20094;-82
2021/03/30 10:53:08;;;;;;;16.02;5.75;;;;;;;;;;5126214;28;20047;-84
2021/03/30 10:55:36;;;;;;;15.15;5.07;;;;;;;;;;5109513;28;20058;-84
2021/03/30 10:58:07;;;;;;;20.20;5.80;;;;;;;;;;5109516;28;20381;-83
2021/03/30 11:00:34;;;;;;;19.10;6.00;;;;;;;;;;5110262;28;20032;-83
2021/03/30 11:03:01;;;;;;;12.57;5.63;;;;;;;;;;5126942;28;20028;-80
2021/03/30 11:05:29;;;;;;;13.07;6.05;;;;;;;;;;5110199;28;20032;-82
2021/03/30 11:07:56;;;;;;;12.25;5.40;;;;;;;;;;5109470;28;20470;-83
2021/03/30 11:10:25;;;;;;;15.30;5.60;;;;;;;;;;5126420;28;20115;-83
2021/03/30 11:12:53;;;;;;;12.10;5.50;;;;;;;;;;5105959;28;20124;-83
2021/03/30 11:15:20;;;;;;;12.40;5.25;;;;;;;;;;5127511;28;20036;-83
2021/03/30 11:17:47;;;;;;;16.23;5.75;;;;;;;;;;5129839;28;20040;-83
2021/03/30 11:20:15;;;;;;;15.20;5.68;;;;;;;;;;5125557;28;20062;-83
2021/03/30 11:22:44;;;;;;;13.00;5.55;;;;;;;;;;5093096;28;20507;-84
2021/03/30 11:25:13;;;;;;;18.98;5.88;;;;;;;;;;5109567;28;20047;-83
2021/03/30 11:27:43;;;;;;;14.88;6.30;;;;;;;;;;5123132;28;20482;-83
2021/03/30 11:30:23;;;;;;;12.85;5.53;;;;;;;;;;5115255;28;20123;-83
2021/03/30 11:36:10;;;;;;;11.75;4.55;;;;;;;;;;5110043;28;20032;-83
2021/03/30 11:38:23;;;;;;;11.80;4.95;;;;;;;;;;5094328;28;20061;-84
2021/03/30 11:40:50;;;;;;;10.98;4.90;;;;;;;;;;5109839;28;20040;-83
2021/03/30 11:43:19;;;;;;;15.77;5.22;;;;;;;;;;5093016;28;20037;-84
2021/03/30 11:45:46;;;;;;;16.08;5.43;;;;;;;;;;5093300;28;20036;-84
2021/03/30 11:48:13;;;;;;;14.57;5.28;;;;;;;;;;5108990;28;20048;-85
2021/03/30 11:50:41;;;;;;;16.17;5.63;;;;;;;;;;5092922;28;20396;-84
2021/03/30 11:53:08;;;;;;;12.50;5.30;;;;;;;;;;5076250;28;20040;-84
2021/03/30 11:55:35;;;;;;;15.15;5.97;;;;;;;;;;5092636;28;20112;-84
2021/03/30 11:58:02;;;;;;;9.30;5.05;;;;;;;;;;5092644;28;20117;-84
2021/03/30 12:00:30;;;;;;;14.57;5.43;;;;;;;;;;5109632;28;20105;-84
2021/03/30 12:02:57;;;;;;;13.63;5.20;;;;;;;;;;5109000;28;20033;-85
2021/03/30 12:05:24;;;;;;;12.95;5.18;;;;;;;;;;5093116;28;20506;-84
2021/03/30 12:07:54;;;;;;;11.95;5.03;;;;;;;;;;5106355;28;20036;-84
2021/03/30 12:10:21;;;;;;;14.45;5.45;;;;;;;;;;5112816;28;20146;-85
2021/03/30 12:12:48;;;;;;;13.68;5.28;;;;;;;;;;5129932;28;20032;-84
2021/03/30 12:15:17;;;;;;;9.95;4.85;;;;;;;;;;5112436;28;20064;-84
2021/03/30 12:17:44;;;;;;;11.70;4.75;;;;;;;;;;5129298;28;20075;-85
2021/03/30 12:20:12;;;;;;;10.43;4.50;;;;;;;;;;5112195;28;20036;-86
2021/03/30 12:22:39;;;;;;;12.85;4.13;;;;;;;;;;5118179;28;20048;-85
2021/03/30 12:25:07;;;;;;;8.45;4.78;;;;;;;;;;5092025;28;20082;-85
2021/03/30 12:27:34;;;;;;;11.13;4.72;;;;;;;;;;5091976;28;20070;-86
2021/03/30 12:30:01;;;;;;;8.95;4.60;;;;;;;;;;5122572;28;20036;-85
2021/03/30 12:32:29;;;;;;;13.77;4.70;;;;;;;;;;5112388;28;20400;-85
2021/03/30 12:34:57;;;;;;;12.07;4.63;;;;;;;;;;5096147;28;20048;-86
2021/03/30 12:37:24;;;;;;;7.60;3.72;;;;;;;;;;5095834;28;20413;-86
2021/03/30 12:39:51;;;;;;;10.07;3.70;;;;;;;;;;5129408;28;20047;-86
2021/03/30 12:42:18;;;;;;;10.05;4.10;;;;;;;;;;5129413;28;20040;-86
2021/03/30 12:44:46;;;;;;;8.77;3.53;;;;;;;;;;5103225;28;20135;-86
2021/03/30 12:47:13;;;;;;;10.73;3.45;;;;;;;;;;5091821;28;20047;-87
2021/03/30 12:49:40;;;;;;;8.75;3.30;;;;;;;;;;5123771;28;20036;-86
2021/03/30 12:52:07;;;;;;;11.82;3.90;;;;;;;;;;5111929;28;20043;-86
2021/03/30 12:54:37;;;;;;;11.48;3.58;;;;;;;;;;5112086;28;20039;-87
2021/03/30 12:57:04;;;;;;;18.75;3.70;;;;;;;;;;5111987;28;20074;-86
2021/03/30 12:59:31;;;;;;;9.23;3.40;;;;;;;;;;5112929;28;20089;-87
2021/03/30 13:01:59;;;;;;;8.90;3.58;;;;;;;;;;5111883;28;20135;-87
2021/03/30 13:04:26;;;;;;;10.00;3.40;;;;;;;;;;5128971;28;20032;-88
2021/03/30 13:06:53;;;;;;;7.20;2.95;;;;;;;;;;5111955;28;20039;-85
2021/03/30 13:09:20;;;;;;;8.60;2.97;;;;;;;;;;5128104;28;20040;-86
2021/03/30 13:11:47;;;;;;;7.93;3.03;;;;;;;;;;5112244;28;20051;-86
2021/03/30 13:14:14;;;;;;;7.43;3.20;;;;;;;;;;5111091;28;20441;-86
2021/03/30 13:16:42;;;;;;;10.98;3.30;;;;;;;;;;5111657;28;20115;-86
2021/03/30 13:19:09;;;;;;;10.48;3.30;;;;;;;;;;5111464;28;20032;-86
2021/03/30 13:21:36;;;;;;;8.70;3.05;;;;;;;;;;5111819;28;20506;-86
2021/03/30 13:24:06;;;;;;;8.75;3.38;;;;;;;;;;5111307;28;20042;-86
2021/03/30 13:26:34;;;;;;;7.60;3.60;;;;;;;;;;5128426;28;20383;-86
2021/03/30 13:29:01;;;;;;;7.43;3.42;;;;;;;;;;5094751;28;20048;-86
2021/03/30 13:31:28;;;;;;;8.20;3.72;;;;;;;;;;5128372;28;20437;-86
2021/03/30 13:33:55;;;;;;;5.90;3.05;;;;;;;;;;5111553;28;20400;-86
2021/03/30 13:36:23;;;;;;;8.02;2.80;;;;;;;;;;5110728;28;20032;-86
2021/03/30 13:38:50;;;;;;;6.30;3.17;;;;;;;;;;5110983;28;20051;-86
2021/03/30 13:41:19;;;;;;;7.03;3.50;;;;;;;;;;5110301;28;20130;-86
2021/03/30 13:43:47;;;;;;;7.47;3.40;;;;;;;;;;5108043;28;20044;-86
2021/03/30 13:46:14;;;;;;;7.18;3.20;;;;;;;;;;5108281;28;20392;-86
2021/03/30 13:48:41;;;;;;;5.28;3.13;;;;;;;;;;5107745;28;20053;-86
2021/03/30 13:51:08;;;;;;;6.53;3.50;;;;;;;;;;5107292;28;20490;-86
2021/03/30 13:53:38;;;;;;;9.40;2.92;;;;;;;;;;5107337;28;20032;-85
2021/03/30 13:56:05;;;;;;;8.32;3.22;;;;;;;;;;5110293;28;20067;-85
2021/03/30 13:58:33;;;;;;;6.88;2.85;;;;;;;;;;5111049;28;20040;-85
2021/03/30 14:01:00;;;;;;;10.23;3.30;;;;;;;;;;5110883;28;20063;-85
2021/03/30 14:03:27;;;;;;;7.22;2.90;;;;;;;;;;5127317;28;20040;-86
2021/03/30 14:05:54;;;;;;;8.68;3.55;;;;;;;;;;5093940;28;20070;-85
2021/03/30 14:08:21;;;;;;;7.78;2.80;;;;;;;;;;5110172;28;20032;-86
2021/03/30 14:10:49;;;;;;;8.02;3.17;;;;;;;;;;5110807;28;20052;-86
2021/03/30 14:13:20;;;;;;;8.02;3.70;;;;;;;;;;5126857;28;20472;-86
2021/03/30 14:15:56;;;;;;;7.45;3.33;;;;;;;;;;5111222;28;20047;-86
2021/03/30 14:21:11;;;;;;;6.13;3.30;;;;;;;;;;5128622;28;20039;-86
2021/03/30 14:23:56;;;;;;;5.40;2.90;;;;;;;;;;5111698;28;20035;-86
2021/03/30 14:26:30;;;;;;;6.78;3.40;;;;;;;;;;5126971;28;20495;-86
2021/03/30 14:28:58;;;;;;;9.30;3.10;;;;;;;;;;5127330;28;20043;-88
2021/03/30 14:31:25;;;;;;;7.22;3.25;;;;;;;;;;5127555;28;20130;-88
2021/03/30 14:33:54;;;;;;;7.50;3.05;;;;;;;;;;5110941;28;20110;-88
2021/03/30 14:36:22;;;;;;;6.78;3.15;;;;;;;;;;5127256;28;20032;-89
2021/03/30 14:38:54;;;;;;;10.43;3.08;;;;;;;;;;5127124;28;20080;-89
2021/03/30 14:41:25;;;;;;;6.47;2.80;;;;;;;;;;5128587;28;20094;-89
2021/03/30 14:44:14;;;;;;;6.43;2.80;;;;;;;;;;5129475;28;20025;-89
2021/03/30 14:52:09;;;;;;;7.97;2.83;;;;;;;;;;5127252;28;20036;-88
2021/03/30 14:54:40;;;;;;;9.10;3.38;;;;;;;;;;5107535;28;20107;-88
2021/03/30 14:57:13;;;;;;;5.38;2.70;;;;;;;;;;5107805;28;20045;-87